createdAt,value
2022-10-17T00:00:43.977Z,15.40
2022-10-17T00:03:10.949Z,15.50
2022-10-17T00:05:42.272Z,15.50
2022-10-17T00:08:10.115Z,15.50
2022-10-17T00:10:36.990Z,15.60
2022-10-17T00:13:04.124Z,15.60
2022-10-17T00:15:31.034Z,15.60
2022-10-17T00:17:58.128Z,15.60
2022-10-17T00:20:25.039Z,15.60
2022-10-17T00:22:52.395Z,15.60
2022-10-17T00:25:19.383Z,15.60
2022-10-17T00:27:46.199Z,15.60
2022-10-17T00:30:16.734Z,15.60
2022-10-17T00:32:43.657Z,15.60
2022-10-17T00:35:10.824Z,15.60
2022-10-17T00:37:37.593Z,15.60
2022-10-17T00:40:05.466Z,15.60
2022-10-17T00:42:32.343Z,15.60
2022-10-17T00:45:01.175Z,15.70
2022-10-17T00:47:28.381Z,15.70
2022-10-17T00:49:55.444Z,15.70
2022-10-17T00:52:24.900Z,15.70
2022-10-17T00:54:54.439Z,15.70
2022-10-17T00:57:21.620Z,15.70
2022-10-17T00:59:52.692Z,15.70
2022-10-17T01:02:21.049Z,15.70
2022-10-17T01:04:50.087Z,15.70
2022-10-17T01:07:17.496Z,15.70
2022-10-17T01:09:45.536Z,15.70
2022-10-17T01:12:31.429Z,15.80
2022-10-17T01:15:17.137Z,15.80
2022-10-17T01:17:43.922Z,15.80
2022-10-17T01:20:29.125Z,15.80
2022-10-17T01:23:05.135Z,15.80
2022-10-17T01:25:34.910Z,15.80
2022-10-17T01:28:04.865Z,15.80
2022-10-17T01:30:51.932Z,15.80
2022-10-17T01:33:28.269Z,15.90
2022-10-17T01:36:03.255Z,15.90
2022-10-17T01:38:40.211Z,15.90
2022-10-17T01:41:14.515Z,15.90
2022-10-17T01:43:44.230Z,16.00
2022-10-17T01:46:30.137Z,15.90
2022-10-17T01:49:00.062Z,16.00
2022-10-17T01:51:29.832Z,16.00
2022-10-17T01:54:06.797Z,16.00
2022-10-17T01:56:35.647Z,16.00
2022-10-17T01:59:10.047Z,16.00
2022-10-17T02:01:38.095Z,16.00
2022-10-17T02:04:07.129Z,16.00
2022-10-17T02:06:34.619Z,16.10
2022-10-17T02:09:02.337Z,16.10
2022-10-17T02:11:29.681Z,16.10
2022-10-17T02:14:02.632Z,16.10
2022-10-17T02:16:44.921Z,16.20
2022-10-17T02:19:11.803Z,16.30
2022-10-17T02:21:41.652Z,16.30
2022-10-17T02:24:14.633Z,16.30
2022-10-17T02:26:44.655Z,16.30
2022-10-17T02:29:27.069Z,16.30
2022-10-17T02:32:05.765Z,16.30
2022-10-17T02:34:41.660Z,16.30
2022-10-17T02:37:10.459Z,16.40
2022-10-17T02:39:38.164Z,16.40
2022-10-17T02:42:07.389Z,16.40
2022-10-17T02:44:35.195Z,16.40
2022-10-17T02:47:05.090Z,16.40
2022-10-17T02:49:35.041Z,16.50
2022-10-17T02:52:05.854Z,16.50
2022-10-17T02:54:39.836Z,16.50
2022-10-17T02:57:18.536Z,16.40
2022-10-17T02:59:45.619Z,16.40
2022-10-17T03:02:12.809Z,16.40
2022-10-17T03:04:42.573Z,16.30
2022-10-17T03:07:09.576Z,16.30
2022-10-17T03:09:36.485Z,16.30
2022-10-17T03:12:03.778Z,16.30
2022-10-17T03:14:30.669Z,16.30
2022-10-17T03:16:57.547Z,16.30
2022-10-17T03:19:25.789Z,16.30
2022-10-17T03:21:53.335Z,16.40
2022-10-17T03:24:20.125Z,16.40
2022-10-17T03:29:18.757Z,16.40
2022-10-17T03:31:46.559Z,16.40
2022-10-17T03:34:13.694Z,16.30
2022-10-17T03:36:40.708Z,16.30
2022-10-17T03:39:07.522Z,16.30
2022-10-17T03:41:35.380Z,16.30
2022-10-17T03:44:02.161Z,16.30
2022-10-17T03:46:28.994Z,16.30
2022-10-17T03:48:57.443Z,16.30
2022-10-17T03:51:24.939Z,16.30
2022-10-17T03:53:56.546Z,16.30
2022-10-17T03:56:24.604Z,16.30
2022-10-17T03:59:02.155Z,16.40
2022-10-17T04:01:31.202Z,16.40
2022-10-17T04:03:58.055Z,16.50
2022-10-17T04:06:28.598Z,16.50
2022-10-17T04:08:55.544Z,16.50
2022-10-17T04:11:27.205Z,16.50
2022-10-17T04:13:59.679Z,16.50
2022-10-17T04:16:27.475Z,16.50
2022-10-17T04:19:11.750Z,16.50
2022-10-17T04:21:41.712Z,16.50
2022-10-17T04:24:10.846Z,16.60
2022-10-17T04:26:44.306Z,16.50
2022-10-17T04:29:11.549Z,16.50
2022-10-17T04:31:39.615Z,16.50
2022-10-17T04:34:20.046Z,16.50
2022-10-17T04:36:47.151Z,16.50
2022-10-17T04:41:46.909Z,16.60
2022-10-17T04:44:14.597Z,16.50
2022-10-17T04:46:47.009Z,16.60
2022-10-17T04:49:13.904Z,16.60
2022-10-17T04:51:43.568Z,16.60
2022-10-17T04:54:18.596Z,16.60
2022-10-17T04:56:49.009Z,16.60
2022-10-17T04:59:16.149Z,16.60
2022-10-17T05:01:44.966Z,16.60
2022-10-17T05:04:12.939Z,16.70
2022-10-17T05:06:39.880Z,16.70
2022-10-17T05:09:35.796Z,16.70
2022-10-17T05:12:04.377Z,16.70
2022-10-17T05:14:33.629Z,16.70
2022-10-17T05:17:00.829Z,16.80
2022-10-17T05:19:28.423Z,16.80
2022-10-17T05:21:55.365Z,16.80
2022-10-17T05:24:22.894Z,16.80
2022-10-17T05:26:52.080Z,16.80
2022-10-17T05:29:19.436Z,16.80
2022-10-17T05:34:27.182Z,16.80
2022-10-17T05:36:54.144Z,16.80
2022-10-17T05:39:23.350Z,16.80
2022-10-17T05:41:52.418Z,16.70
2022-10-17T05:44:19.251Z,16.70
2022-10-17T05:46:51.900Z,16.80
2022-10-17T05:49:32.237Z,16.80
2022-10-17T05:52:06.170Z,16.80
2022-10-17T05:54:41.087Z,16.80
2022-10-17T05:57:08.018Z,16.80
2022-10-17T05:59:35.901Z,16.80
2022-10-17T06:02:07.416Z,16.80
2022-10-17T06:04:34.689Z,16.90
2022-10-17T06:07:02.740Z,16.80
2022-10-17T06:09:31.584Z,16.80
2022-10-17T06:11:58.402Z,16.80
2022-10-17T06:14:25.272Z,16.80
2022-10-17T06:16:56.144Z,16.80
2022-10-17T06:19:22.938Z,16.90
2022-10-17T06:21:50.249Z,16.90
2022-10-17T06:24:21.437Z,16.90
2022-10-17T06:26:49.860Z,16.90
2022-10-17T06:29:17.118Z,16.90
2022-10-17T06:31:47.938Z,16.90
2022-10-17T06:34:15.072Z,17.00
2022-10-17T06:36:42.108Z,17.00
2022-10-17T06:39:10.217Z,17.10
2022-10-17T06:41:43.765Z,17.10
2022-10-17T06:44:11.703Z,17.10
2022-10-17T06:46:55.042Z,17.10
2022-10-17T06:49:22.642Z,17.10
2022-10-17T06:51:59.186Z,17.20
2022-10-17T06:54:38.856Z,17.20
2022-10-17T06:57:26.215Z,17.20
2022-10-17T07:00:13.729Z,17.20
2022-10-17T07:02:45.873Z,17.20
2022-10-17T07:05:12.758Z,17.30
2022-10-17T07:07:43.068Z,17.30
2022-10-17T07:10:12.265Z,17.30
2022-10-17T07:12:40.475Z,17.40
2022-10-17T07:15:07.589Z,17.40
2022-10-17T07:17:34.531Z,17.40
2022-10-17T07:20:01.399Z,17.50
2022-10-17T07:22:30.312Z,17.60
2022-10-17T07:24:58.565Z,17.60
2022-10-17T07:27:37.216Z,17.60
2022-10-17T07:30:04.826Z,17.60
2022-10-17T07:32:42.002Z,17.70
2022-10-17T07:35:15.025Z,17.60
2022-10-17T07:37:41.867Z,17.60
2022-10-17T07:40:08.891Z,17.70
2022-10-17T07:45:12.229Z,17.80
2022-10-17T07:47:39.383Z,17.90
2022-10-17T07:50:08.451Z,17.90
2022-10-17T07:52:35.374Z,17.90
2022-10-17T07:55:02.254Z,17.90
2022-10-17T07:57:29.114Z,17.90
2022-10-17T07:59:55.989Z,17.90
2022-10-17T08:02:26.938Z,17.90
2022-10-17T08:04:54.546Z,17.90
2022-10-17T08:07:25.344Z,18.00
2022-10-17T08:09:53.816Z,18.00
2022-10-17T08:12:20.681Z,18.10
2022-10-17T08:14:48.140Z,18.20
2022-10-17T08:17:15.051Z,18.20
2022-10-17T08:19:41.989Z,18.20
2022-10-17T08:22:09.098Z,18.20
2022-10-17T08:24:36.052Z,18.20
2022-10-17T08:27:03.950Z,18.30
2022-10-17T08:29:32.766Z,18.30
2022-10-17T08:32:01.202Z,18.40
2022-10-17T08:34:29.281Z,18.50
2022-10-17T08:36:56.159Z,18.50
2022-10-17T08:39:23.277Z,18.60
2022-10-17T08:42:03.126Z,18.60
2022-10-17T08:44:36.177Z,18.70
2022-10-17T08:47:05.489Z,18.70
2022-10-17T08:49:51.502Z,18.70
2022-10-17T08:52:53.657Z,18.80
2022-10-17T08:55:33.502Z,18.80
2022-10-17T08:58:00.653Z,19.00
2022-10-17T09:00:28.505Z,19.00
2022-10-17T09:02:55.570Z,19.10
2022-10-17T09:05:35.044Z,19.10
2022-10-17T09:08:07.439Z,19.20
2022-10-17T09:10:37.618Z,19.30
2022-10-17T09:13:18.717Z,19.40
2022-10-17T09:15:55.128Z,19.50
2022-10-17T09:18:27.777Z,19.60
2022-10-17T09:20:58.348Z,19.60
2022-10-17T09:23:27.714Z,19.70
2022-10-17T09:25:55.671Z,19.70
2022-10-17T09:28:25.603Z,19.70
2022-10-17T09:30:52.430Z,19.80
2022-10-17T09:33:54.242Z,19.90
2022-10-17T09:36:40.636Z,20.00
2022-10-17T09:39:12.983Z,20.00
2022-10-17T09:41:48.948Z,20.20
2022-10-17T09:44:29.186Z,20.30
2022-10-17T09:46:59.136Z,20.40
2022-10-17T09:49:29.477Z,20.50
2022-10-17T09:51:56.384Z,20.50
2022-10-17T09:54:25.110Z,20.60
2022-10-17T09:56:59.803Z,20.70
2022-10-17T09:59:31.057Z,20.80
2022-10-17T10:02:10.413Z,20.80
2022-10-17T10:05:03.799Z,20.80
2022-10-17T10:07:33.447Z,20.90
2022-10-17T10:10:00.694Z,20.90
2022-10-17T10:12:32.129Z,20.90
2022-10-17T10:14:59.596Z,20.90
2022-10-17T10:17:41.913Z,20.90
2022-10-17T10:20:32.604Z,20.90
2022-10-17T10:23:05.614Z,20.90
2022-10-17T10:25:32.780Z,20.90
2022-10-17T10:28:01.425Z,20.90
2022-10-17T10:30:29.801Z,20.90
2022-10-17T10:32:58.156Z,20.90
2022-10-17T10:35:30.810Z,20.90
2022-10-17T10:37:58.397Z,20.90
2022-10-17T10:40:31.273Z,20.90
2022-10-17T10:43:02.627Z,20.90
2022-10-17T10:45:53.588Z,20.90
2022-10-17T10:48:23.553Z,21.00
2022-10-17T10:50:56.147Z,21.00
2022-10-17T10:53:23.274Z,20.90
2022-10-17T10:56:09.141Z,21.00
2022-10-17T10:58:42.968Z,21.00
2022-10-17T11:01:21.982Z,21.10
2022-10-17T11:03:57.917Z,21.10
2022-10-17T11:06:29.044Z,21.00
2022-10-17T11:09:14.542Z,21.10
2022-10-17T11:11:52.494Z,21.20
2022-10-17T11:14:22.867Z,21.30
2022-10-17T11:16:54.492Z,21.30
2022-10-17T11:19:25.316Z,21.30
2022-10-17T11:21:53.440Z,21.30
2022-10-17T11:24:42.423Z,21.30
2022-10-17T11:27:09.412Z,21.30
2022-10-17T11:29:39.184Z,21.30
2022-10-17T11:32:17.926Z,21.30
2022-10-17T11:34:49.859Z,21.30
2022-10-17T11:37:28.752Z,21.30
2022-10-17T11:40:14.470Z,21.30
2022-10-17T11:42:53.172Z,21.40
2022-10-17T11:45:21.944Z,21.30
2022-10-17T11:47:54.246Z,21.20
2022-10-17T11:53:17.677Z,21.30
2022-10-17T11:55:45.480Z,21.40
2022-10-17T11:58:12.288Z,21.40
2022-10-17T12:00:49.053Z,21.40
2022-10-17T12:03:29.719Z,21.40
2022-10-17T12:06:14.931Z,21.40
2022-10-17T12:08:50.912Z,21.40
2022-10-17T12:11:27.423Z,21.40
2022-10-17T12:13:56.280Z,21.40
2022-10-17T12:16:23.619Z,21.40
2022-10-17T12:18:52.852Z,21.40
2022-10-17T12:21:19.748Z,21.40
2022-10-17T12:23:54.066Z,21.40
2022-10-17T12:26:28.496Z,21.50
2022-10-17T12:28:56.511Z,21.50
2022-10-17T12:31:33.562Z,21.50
2022-10-17T12:34:02.065Z,21.50
2022-10-17T12:36:29.220Z,21.50
2022-10-17T12:39:02.209Z,21.50
2022-10-17T12:41:38.363Z,21.50
2022-10-17T12:44:29.444Z,21.50
2022-10-17T12:46:57.902Z,21.50
2022-10-17T12:49:40.158Z,21.50
2022-10-17T12:52:27.037Z,21.50
2022-10-17T12:55:07.492Z,21.50
2022-10-17T12:57:52.464Z,21.50
2022-10-17T13:00:22.063Z,21.50
2022-10-17T13:02:49.900Z,21.50
2022-10-17T13:05:22.203Z,21.50
2022-10-17T13:07:49.543Z,21.50
2022-10-17T13:10:19.499Z,21.50
2022-10-17T13:12:47.225Z,21.50
2022-10-17T13:15:16.653Z,21.40
2022-10-17T13:17:43.983Z,21.40
2022-10-17T13:20:25.558Z,21.40
2022-10-17T13:22:57.160Z,21.30
2022-10-17T13:25:25.465Z,21.40
2022-10-17T13:28:02.735Z,21.30
2022-10-17T13:30:32.172Z,21.30
2022-10-17T13:32:59.833Z,21.30
2022-10-17T13:35:42.023Z,21.20
2022-10-17T13:38:13.815Z,21.20
2022-10-17T13:40:49.569Z,21.20
2022-10-17T13:43:19.526Z,21.20
2022-10-17T13:45:50.798Z,21.20
2022-10-17T13:48:21.851Z,21.30
2022-10-17T13:50:50.543Z,21.30
2022-10-17T13:53:25.102Z,21.30
2022-10-17T13:56:09.765Z,21.30
2022-10-17T13:58:48.259Z,21.30
2022-10-17T14:01:15.752Z,21.30
2022-10-17T14:03:48.776Z,21.20
2022-10-17T14:06:15.976Z,21.10
2022-10-17T14:08:48.373Z,21.00
2022-10-17T14:11:23.682Z,20.90
2022-10-17T14:13:51.448Z,20.90
2022-10-17T14:16:18.767Z,20.90
2022-10-17T14:18:49.179Z,20.80
2022-10-17T14:21:44.538Z,20.80
2022-10-17T14:24:23.256Z,20.70
2022-10-17T14:26:51.952Z,20.70
2022-10-17T14:29:25.154Z,20.70
2022-10-17T14:32:00.171Z,20.70
2022-10-17T14:34:29.790Z,20.60
2022-10-17T14:36:56.739Z,20.60
2022-10-17T14:39:24.729Z,20.70
2022-10-17T14:41:52.178Z,20.60
2022-10-17T14:44:26.935Z,20.60
2022-10-17T14:46:55.561Z,20.60
2022-10-17T14:49:32.579Z,20.60
2022-10-17T14:52:18.814Z,20.60
2022-10-17T14:54:47.536Z,20.60
2022-10-17T14:57:23.807Z,20.50
2022-10-17T14:59:55.223Z,20.50
2022-10-17T15:02:23.789Z,20.50
2022-10-17T15:04:50.918Z,20.50
2022-10-17T15:07:18.403Z,20.50
2022-10-17T15:09:45.671Z,20.40
2022-10-17T15:12:16.917Z,20.40
2022-10-17T15:14:44.039Z,20.30
2022-10-17T15:17:34.666Z,20.30
2022-10-17T15:20:01.629Z,20.30
2022-10-17T15:22:28.897Z,20.30
2022-10-17T15:24:56.045Z,20.20
2022-10-17T15:27:23.666Z,20.20
2022-10-17T15:29:50.588Z,20.20
2022-10-17T15:32:17.523Z,20.20
2022-10-17T15:34:44.612Z,20.20
2022-10-17T15:37:33.299Z,20.20
2022-10-17T15:40:00.124Z,20.20
2022-10-17T15:42:28.334Z,20.10
2022-10-17T15:44:55.593Z,20.10
2022-10-17T15:47:24.333Z,20.00
2022-10-17T15:49:51.212Z,20.00
2022-10-17T15:52:18.170Z,19.90
2022-10-17T15:54:45.123Z,19.90
2022-10-17T15:57:28.849Z,19.90
2022-10-17T15:59:57.276Z,19.80
2022-10-17T16:02:24.391Z,19.80
2022-10-17T16:04:51.822Z,19.70
2022-10-17T16:07:19.330Z,19.60
2022-10-17T16:09:46.116Z,19.60
2022-10-17T16:12:15.236Z,19.50
2022-10-17T16:14:42.088Z,19.50
2022-10-17T16:17:16.146Z,19.40
2022-10-17T16:19:43.229Z,19.30
2022-10-17T16:22:17.705Z,19.30
2022-10-17T16:24:44.684Z,19.20
2022-10-17T16:27:11.513Z,19.10
2022-10-17T16:29:38.391Z,19.10
2022-10-17T16:32:05.368Z,19.10
2022-10-17T16:34:32.344Z,19.00
2022-10-17T16:36:59.166Z,19.00
2022-10-17T16:41:58.695Z,18.90
2022-10-17T16:44:25.834Z,18.90
2022-10-17T16:46:52.651Z,18.80
2022-10-17T16:49:19.410Z,18.80
2022-10-17T16:51:46.277Z,18.70
2022-10-17T16:54:13.082Z,18.70
2022-10-17T16:56:39.927Z,18.70
2022-10-17T16:59:06.947Z,18.60
2022-10-17T17:01:34.014Z,18.60
2022-10-17T17:04:01.111Z,18.50
2022-10-17T17:06:28.810Z,18.50
2022-10-17T17:08:55.780Z,18.40
2022-10-17T17:11:23.840Z,18.40
2022-10-17T17:13:50.615Z,18.40
2022-10-17T17:16:19.200Z,18.30
2022-10-17T17:18:46.731Z,18.20
2022-10-17T17:21:13.961Z,18.20
2022-10-17T17:23:41.620Z,18.20
2022-10-17T17:26:18.747Z,18.10
2022-10-17T17:28:45.921Z,18.10
2022-10-17T17:31:14.208Z,18.10
2022-10-17T17:33:41.784Z,18.00
2022-10-17T17:36:10.444Z,18.00
2022-10-17T17:38:37.269Z,18.00
2022-10-17T17:41:04.239Z,17.90
2022-10-17T17:43:31.152Z,17.90
2022-10-17T17:46:00.685Z,17.90
2022-10-17T17:48:27.468Z,17.90
2022-10-17T17:50:54.405Z,17.80
2022-10-17T17:53:21.436Z,17.80
2022-10-17T17:55:48.252Z,17.80
2022-10-17T17:58:15.053Z,17.80
2022-10-17T18:00:41.956Z,17.80
2022-10-17T18:03:09.613Z,17.70
2022-10-17T18:05:36.522Z,17.70
2022-10-17T18:08:04.800Z,17.70
2022-10-17T18:10:31.651Z,17.70
2022-10-17T18:12:58.495Z,17.70
2022-10-17T18:15:25.315Z,17.60
2022-10-17T18:17:52.208Z,17.60
2022-10-17T18:20:19.005Z,17.60
2022-10-17T18:22:45.899Z,17.50
2022-10-17T18:25:12.824Z,17.50
2022-10-17T18:27:39.699Z,17.50
2022-10-17T18:30:08.462Z,17.50
2022-10-17T18:32:35.314Z,17.50
2022-10-17T18:35:02.197Z,17.50
2022-10-17T18:37:29.114Z,17.50
2022-10-17T18:39:57.357Z,17.50
2022-10-17T18:42:24.198Z,17.40
2022-10-17T18:44:51.320Z,17.40
2022-10-17T18:47:18.137Z,17.40
2022-10-17T18:49:45.111Z,17.40
2022-10-17T18:52:11.932Z,17.40
2022-10-17T18:54:38.878Z,17.40
2022-10-17T18:57:05.856Z,17.40
2022-10-17T18:59:33.096Z,17.30
2022-10-17T19:02:02.987Z,17.30
2022-10-17T19:04:29.848Z,17.30
2022-10-17T19:06:56.649Z,17.30
2022-10-17T19:09:23.512Z,17.20
2022-10-17T19:11:50.470Z,17.30
2022-10-17T19:14:17.487Z,17.20
2022-10-17T19:16:45.965Z,17.20
2022-10-17T19:19:14.860Z,17.20
2022-10-17T19:21:41.719Z,17.20
2022-10-17T19:24:11.586Z,17.20
2022-10-17T19:26:38.501Z,17.20
2022-10-17T19:29:05.662Z,17.20
2022-10-17T19:31:33.391Z,17.10
2022-10-17T19:34:00.500Z,17.10
2022-10-17T19:36:32.313Z,17.10
2022-10-17T19:39:02.224Z,17.10
2022-10-17T19:41:29.209Z,17.10
2022-10-17T19:43:56.040Z,17.00
2022-10-17T19:46:24.012Z,17.00
2022-10-17T19:48:51.274Z,17.00
2022-10-17T19:51:20.785Z,16.90
2022-10-17T19:53:47.790Z,16.90
2022-10-17T19:56:18.439Z,16.90
2022-10-17T19:58:46.478Z,16.80
2022-10-17T20:01:17.640Z,16.80
2022-10-17T20:03:44.646Z,16.80
2022-10-17T20:06:12.143Z,16.70
2022-10-17T20:08:39.592Z,16.70
2022-10-17T20:11:07.783Z,16.70
2022-10-17T20:13:35.557Z,16.60
2022-10-17T20:16:03.098Z,16.60
2022-10-17T20:18:30.255Z,16.60
2022-10-17T20:21:02.903Z,16.60
2022-10-17T20:23:29.869Z,16.60
2022-10-17T20:26:08.081Z,16.50
2022-10-17T20:28:40.565Z,16.50
2022-10-17T20:31:08.950Z,16.50
2022-10-17T20:33:37.303Z,16.50
2022-10-17T20:36:08.168Z,16.50
2022-10-17T20:38:35.288Z,16.40
2022-10-17T20:41:06.453Z,16.50
2022-10-17T20:43:33.722Z,16.40
2022-10-17T20:46:09.640Z,16.40
2022-10-17T20:48:50.707Z,16.40
2022-10-17T20:51:17.508Z,16.40
2022-10-17T20:53:47.272Z,16.40
2022-10-17T20:56:18.764Z,16.40
2022-10-17T20:58:49.475Z,16.40
2022-10-17T21:01:16.329Z,16.40
2022-10-17T21:03:46.388Z,16.40
2022-10-17T21:06:14.001Z,16.40
2022-10-17T21:08:41.120Z,16.30
2022-10-17T21:11:12.053Z,16.30
2022-10-17T21:13:39.581Z,16.30
2022-10-17T21:16:07.516Z,16.30
2022-10-17T21:18:34.460Z,16.30
2022-10-17T21:21:15.392Z,16.20
2022-10-17T21:23:43.620Z,16.20
2022-10-17T21:26:12.613Z,16.20
2022-10-17T21:28:40.398Z,16.20
2022-10-17T21:31:13.360Z,16.20
2022-10-17T21:33:40.765Z,16.10
2022-10-17T21:36:08.000Z,16.10
2022-10-17T21:38:38.444Z,16.10
2022-10-17T21:41:06.144Z,16.10
2022-10-17T21:43:33.260Z,16.10
2022-10-17T21:46:04.722Z,16.10
2022-10-17T21:48:31.780Z,16.10
2022-10-17T21:51:03.477Z,16.00
2022-10-17T21:53:30.648Z,16.00
2022-10-17T21:56:04.897Z,16.00
2022-10-17T21:58:32.415Z,16.00
2022-10-17T22:01:03.843Z,16.00
2022-10-17T22:03:32.093Z,15.90
2022-10-17T22:06:11.738Z,15.90
2022-10-17T22:08:46.304Z,15.90
2022-10-17T22:11:17.563Z,15.90
2022-10-17T22:13:44.485Z,15.90
2022-10-17T22:16:12.581Z,15.90
2022-10-17T22:18:39.897Z,15.90
2022-10-17T22:21:08.394Z,15.80
2022-10-17T22:23:38.375Z,15.80
2022-10-17T22:26:05.964Z,15.80
2022-10-17T22:28:33.317Z,15.80
2022-10-17T22:31:00.217Z,15.80
2022-10-17T22:33:27.080Z,15.80
2022-10-17T22:35:53.917Z,15.80
2022-10-17T22:38:20.715Z,15.80
2022-10-17T22:40:47.555Z,15.80
2022-10-17T22:43:14.363Z,15.80
2022-10-17T22:45:41.525Z,15.70
2022-10-17T22:48:08.302Z,15.70
2022-10-17T22:50:35.356Z,15.70
2022-10-17T22:53:02.199Z,15.70
2022-10-17T22:55:29.029Z,15.70
2022-10-17T22:57:55.960Z,15.70
2022-10-17T23:00:22.792Z,15.70
2022-10-17T23:02:52.849Z,15.70
2022-10-17T23:05:19.645Z,15.70
2022-10-17T23:07:46.467Z,15.70
2022-10-17T23:10:13.271Z,15.70
2022-10-17T23:12:40.102Z,15.70
2022-10-17T23:15:07.305Z,15.60
2022-10-17T23:17:36.434Z,15.60
2022-10-17T23:20:05.832Z,15.60
2022-10-17T23:22:33.016Z,15.60
2022-10-17T23:24:59.908Z,15.60
2022-10-17T23:27:26.810Z,15.60
2022-10-17T23:29:53.644Z,15.60
2022-10-17T23:32:21.559Z,15.60
2022-10-17T23:34:48.339Z,15.60
2022-10-17T23:37:15.211Z,15.60
2022-10-17T23:39:42.042Z,15.60
2022-10-17T23:42:09.017Z,15.60
2022-10-17T23:44:35.834Z,15.60
2022-10-17T23:47:02.613Z,15.60
2022-10-17T23:49:29.421Z,15.50
2022-10-17T23:51:56.228Z,15.50
2022-10-17T23:54:25.608Z,15.60
2022-10-17T23:56:52.426Z,15.50
2022-10-17T23:59:21.560Z,15.50
